sensor_id;sensor_type;location;lat;lon;timestamp;temperature;humidity
12233;DHT22;6179;51.748;8.728;2023-08-06T00:00:56;15.60;98.30
12233;DHT22;6179;51.748;8.728;2023-08-06T00:06:57;15.40;98.30
12233;DHT22;6179;51.748;8.728;2023-08-06T00:12:57;15.60;98.30
12233;DHT22;6179;51.748;8.728;2023-08-06T00:18:58;15.80;98.30
12233;DHT22;6179;51.748;8.728;2023-08-06T00:24:58;15.70;98.30
12233;DHT22;6179;51.748;8.728;2023-08-06T00:30:59;15.60;98.30
12233;DHT22;6179;51.748;8.728;2023-08-06T00:37:00;15.80;98.30
12233;DHT22;6179;51.748;8.728;2023-08-06T00:43:00;15.60;98.30
12233;DHT22;6179;51.748;8.728;2023-08-06T00:49:01;15.70;98.30
12233;DHT22;6179;51.748;8.728;2023-08-06T00:55:02;15.80;98.30
12233;DHT22;6179;51.748;8.728;2023-08-06T01:01:02;16.00;98.30
12233;DHT22;6179;51.748;8.728;2023-08-06T01:13:27;15.90;98.30
12233;DHT22;6179;51.748;8.728;2023-08-06T01:19:30;15.80;98.30
12233;DHT22;6179;51.748;8.728;2023-08-06T01:25:49;15.70;98.30
12233;DHT22;6179;51.748;8.728;2023-08-06T01:31:52;15.60;98.30
12233;DHT22;6179;51.748;8.728;2023-08-06T01:37:54;15.50;98.30
12233;DHT22;6179;51.748;8.728;2023-08-06T01:43:56;15.40;98.30
12233;DHT22;6179;51.748;8.728;2023-08-06T01:49:57;15.20;98.30
12233;DHT22;6179;51.748;8.728;2023-08-06T01:55:57;15.30;98.30
12233;DHT22;6179;51.748;8.728;2023-08-06T02:01:58;15.50;98.30
12233;DHT22;6179;51.748;8.728;2023-08-06T02:07:59;15.50;98.30
12233;DHT22;6179;51.748;8.728;2023-08-06T02:13:59;15.40;98.30
12233;DHT22;6179;51.748;8.728;2023-08-06T02:20:00;15.50;98.30
12233;DHT22;6179;51.748;8.728;2023-08-06T02:26:02;15.70;98.30
12233;DHT22;6179;51.748;8.728;2023-08-06T02:32:03;15.60;98.30
12233;DHT22;6179;51.748;8.728;2023-08-06T02:38:04;15.50;98.30
12233;DHT22;6179;51.748;8.728;2023-08-06T02:44:04;15.60;98.30
12233;DHT22;6179;51.748;8.728;2023-08-06T02:50:05;15.40;98.30
12233;DHT22;6179;51.748;8.728;2023-08-06T02:56:06;15.10;98.30
12233;DHT22;6179;51.748;8.728;2023-08-06T03:02:07;15.10;98.30
12233;DHT22;6179;51.748;8.728;2023-08-06T03:08:07;15.10;98.30
12233;DHT22;6179;51.748;8.728;2023-08-06T03:14:08;15.00;98.30
12233;DHT22;6179;51.748;8.728;2023-08-06T03:20:10;14.80;98.30
12233;DHT22;6179;51.748;8.728;2023-08-06T03:26:11;14.90;98.30
12233;DHT22;6179;51.748;8.728;2023-08-06T03:32:11;15.10;98.30
12233;DHT22;6179;51.748;8.728;2023-08-06T03:38:12;15.00;98.30
12233;DHT22;6179;51.748;8.728;2023-08-06T03:44:12;14.80;98.30
12233;DHT22;6179;51.748;8.728;2023-08-06T03:50:13;14.50;98.30
12233;DHT22;6179;51.748;8.728;2023-08-06T03:56:14;14.40;98.30
12233;DHT22;6179;51.748;8.728;2023-08-06T04:02:14;14.30;98.30
12233;DHT22;6179;51.748;8.728;2023-08-06T04:08:15;14.40;98.30
12233;DHT22;6179;51.748;8.728;2023-08-06T04:14:16;14.50;98.30
12233;DHT22;6179;51.748;8.728;2023-08-06T04:20:16;14.60;98.30
12233;DHT22;6179;51.748;8.728;2023-08-06T04:26:17;14.70;98.30
12233;DHT22;6179;51.748;8.728;2023-08-06T04:32:17;14.80;98.30
12233;DHT22;6179;51.748;8.728;2023-08-06T04:38:19;15.30;98.30
12233;DHT22;6179;51.748;8.728;2023-08-06T04:44:20;15.40;98.30
12233;DHT22;6179;51.748;8.728;2023-08-06T04:50:21;15.30;98.30
12233;DHT22;6179;51.748;8.728;2023-08-06T04:56:22;15.30;98.30
12233;DHT22;6179;51.748;8.728;2023-08-06T05:02:22;15.30;98.30
12233;DHT22;6179;51.748;8.728;2023-08-06T05:08:23;15.40;98.30
12233;DHT22;6179;51.748;8.728;2023-08-06T05:14:23;15.50;98.30
12233;DHT22;6179;51.748;8.728;2023-08-06T05:20:24;15.70;98.30
12233;DHT22;6179;51.748;8.728;2023-08-06T05:26:25;15.90;98.30
12233;DHT22;6179;51.748;8.728;2023-08-06T05:32:25;16.00;98.30
12233;DHT22;6179;51.748;8.728;2023-08-06T05:38:26;16.20;98.30
12233;DHT22;6179;51.748;8.728;2023-08-06T05:44:27;16.40;98.30
12233;DHT22;6179;51.748;8.728;2023-08-06T05:50:28;16.20;98.30
12233;DHT22;6179;51.748;8.728;2023-08-06T05:56:28;16.30;98.30
12233;DHT22;6179;51.748;8.728;2023-08-06T06:02:29;16.50;98.30
12233;DHT22;6179;51.748;8.728;2023-08-06T06:08:30;16.50;98.30
12233;DHT22;6179;51.748;8.728;2023-08-06T06:14:30;16.80;98.30
12233;DHT22;6179;51.748;8.728;2023-08-06T06:20:32;16.90;98.30
12233;DHT22;6179;51.748;8.728;2023-08-06T06:26:33;16.90;98.30
12233;DHT22;6179;51.748;8.728;2023-08-06T06:32:34;17.10;98.30
12233;DHT22;6179;51.748;8.728;2023-08-06T06:38:35;17.00;98.30
12233;DHT22;6179;51.748;8.728;2023-08-06T06:44:35;17.30;98.30
12233;DHT22;6179;51.748;8.728;2023-08-06T06:50:36;17.20;98.30
12233;DHT22;6179;51.748;8.728;2023-08-06T06:56:37;17.40;98.30
12233;DHT22;6179;51.748;8.728;2023-08-06T07:02:37;17.50;98.30
12233;DHT22;6179;51.748;8.728;2023-08-06T07:08:38;17.40;98.30
12233;DHT22;6179;51.748;8.728;2023-08-06T07:14:39;17.70;98.30
12233;DHT22;6179;51.748;8.728;2023-08-06T07:20:39;18.20;98.30
12233;DHT22;6179;51.748;8.728;2023-08-06T07:26:40;18.60;98.30
12233;DHT22;6179;51.748;8.728;2023-08-06T07:32:40;18.80;98.30
12233;DHT22;6179;51.748;8.728;2023-08-06T07:38:41;19.60;98.30
12233;DHT22;6179;51.748;8.728;2023-08-06T07:44:42;19.70;97.50
12233;DHT22;6179;51.748;8.728;2023-08-06T07:50:42;19.60;96.30
12233;DHT22;6179;51.748;8.728;2023-08-06T07:56:50;19.40;97.30
12233;DHT22;6179;51.748;8.728;2023-08-06T08:02:51;19.40;96.70
12233;DHT22;6179;51.748;8.728;2023-08-06T08:08:51;19.30;97.00
12233;DHT22;6179;51.748;8.728;2023-08-06T08:14:52;19.90;96.50
12233;DHT22;6179;51.748;8.728;2023-08-06T08:20:53;19.70;95.00
12233;DHT22;6179;51.748;8.728;2023-08-06T08:26:54;19.70;96.00
12233;DHT22;6179;51.748;8.728;2023-08-06T08:32:54;19.90;95.40
12233;DHT22;6179;51.748;8.728;2023-08-06T08:38:55;20.40;94.80
12233;DHT22;6179;51.748;8.728;2023-08-06T08:44:56;20.70;94.80
12233;DHT22;6179;51.748;8.728;2023-08-06T08:50:57;21.00;90.90
12233;DHT22;6179;51.748;8.728;2023-08-06T08:56:58;20.80;88.70
12233;DHT22;6179;51.748;8.728;2023-08-06T09:02:59;20.70;92.50
12233;DHT22;6179;51.748;8.728;2023-08-06T09:09:11;21.00;90.10
12233;DHT22;6179;51.748;8.728;2023-08-06T09:15:12;21.20;87.80
12233;DHT22;6179;51.748;8.728;2023-08-06T09:21:14;21.10;88.90
12233;DHT22;6179;51.748;8.728;2023-08-06T09:27:18;21.50;85.20
12233;DHT22;6179;51.748;8.728;2023-08-06T09:33:19;22.10;84.60
12233;DHT22;6179;51.748;8.728;2023-08-06T09:39:28;21.80;85.20
12233;DHT22;6179;51.748;8.728;2023-08-06T09:45:33;21.20;85.60
12233;DHT22;6179;51.748;8.728;2023-08-06T09:51:34;20.90;88.80
12233;DHT22;6179;51.748;8.728;2023-08-06T09:57:35;21.20;86.40
12233;DHT22;6179;51.748;8.728;2023-08-06T10:03:37;21.20;88.00
12233;DHT22;6179;51.748;8.728;2023-08-06T10:09:38;21.00;91.40
12233;DHT22;6179;51.748;8.728;2023-08-06T10:15:39;21.00;87.00
12233;DHT22;6179;51.748;8.728;2023-08-06T10:21:40;20.80;87.50
12233;DHT22;6179;51.748;8.728;2023-08-06T10:27:53;21.00;89.60
12233;DHT22;6179;51.748;8.728;2023-08-06T10:33:54;21.10;87.40
12233;DHT22;6179;51.748;8.728;2023-08-06T10:39:55;21.10;87.90
12233;DHT22;6179;51.748;8.728;2023-08-06T10:45:57;21.10;84.90
12233;DHT22;6179;51.748;8.728;2023-08-06T10:51:58;21.30;84.90
12233;DHT22;6179;51.748;8.728;2023-08-06T10:57:59;21.10;83.60
12233;DHT22;6179;51.748;8.728;2023-08-06T11:04:02;21.30;89.00
12233;DHT22;6179;51.748;8.728;2023-08-06T11:10:08;21.40;85.70
12233;DHT22;6179;51.748;8.728;2023-08-06T11:16:09;21.80;84.50
12233;DHT22;6179;51.748;8.728;2023-08-06T11:22:10;21.40;85.20
12233;DHT22;6179;51.748;8.728;2023-08-06T11:28:12;22.00;86.30
12233;DHT22;6179;51.748;8.728;2023-08-06T11:34:12;21.80;84.50
12233;DHT22;6179;51.748;8.728;2023-08-06T11:40:15;21.50;87.50
12233;DHT22;6179;51.748;8.728;2023-08-06T11:46:15;21.90;86.70
12233;DHT22;6179;51.748;8.728;2023-08-06T11:52:21;21.40;87.20
12233;DHT22;6179;51.748;8.728;2023-08-06T11:58:23;20.90;93.00
12233;DHT22;6179;51.748;8.728;2023-08-06T12:04:24;21.00;91.80
12233;DHT22;6179;51.748;8.728;2023-08-06T12:10:26;20.50;92.90
12233;DHT22;6179;51.748;8.728;2023-08-06T12:16:28;20.00;93.20
12233;DHT22;6179;51.748;8.728;2023-08-06T12:22:28;20.00;95.10
12233;DHT22;6179;51.748;8.728;2023-08-06T12:28:31;20.10;96.90
12233;DHT22;6179;51.748;8.728;2023-08-06T12:34:32;20.70;94.10
12233;DHT22;6179;51.748;8.728;2023-08-06T12:40:33;20.50;96.50
12233;DHT22;6179;51.748;8.728;2023-08-06T12:46:33;20.70;97.90
12233;DHT22;6179;51.748;8.728;2023-08-06T12:52:34;21.00;98.30
12233;DHT22;6179;51.748;8.728;2023-08-06T12:58:35;22.30;95.20
12233;DHT22;6179;51.748;8.728;2023-08-06T13:04:35;22.90;88.60
12233;DHT22;6179;51.748;8.728;2023-08-06T13:10:36;22.70;90.20
12233;DHT22;6179;51.748;8.728;2023-08-06T13:16:40;23.40;83.70
12233;DHT22;6179;51.748;8.728;2023-08-06T13:22:41;23.30;81.70
12233;DHT22;6179;51.748;8.728;2023-08-06T13:28:42;23.10;84.20
12233;DHT22;6179;51.748;8.728;2023-08-06T13:34:43;23.10;81.70
12233;DHT22;6179;51.748;8.728;2023-08-06T13:40:43;23.00;83.10
12233;DHT22;6179;51.748;8.728;2023-08-06T13:46:44;22.40;84.50
12233;DHT22;6179;51.748;8.728;2023-08-06T13:52:45;22.70;87.00
12233;DHT22;6179;51.748;8.728;2023-08-06T13:58:45;22.80;85.20
12233;DHT22;6179;51.748;8.728;2023-08-06T14:04:46;21.70;88.10
12233;DHT22;6179;51.748;8.728;2023-08-06T14:10:47;20.90;83.90
12233;DHT22;6179;51.748;8.728;2023-08-06T14:16:47;19.80;84.70
12233;DHT22;6179;51.748;8.728;2023-08-06T14:22:48;19.80;85.20
12233;DHT22;6179;51.748;8.728;2023-08-06T14:28:49;18.70;93.50
12233;DHT22;6179;51.748;8.728;2023-08-06T14:34:49;17.30;98.30
12233;DHT22;6179;51.748;8.728;2023-08-06T14:40:50;16.90;98.30
12233;DHT22;6179;51.748;8.728;2023-08-06T14:46:50;17.10;98.30
12233;DHT22;6179;51.748;8.728;2023-08-06T14:52:51;17.50;98.30
12233;DHT22;6179;51.748;8.728;2023-08-06T14:58:52;17.90;98.30
12233;DHT22;6179;51.748;8.728;2023-08-06T15:04:52;18.00;98.30
12233;DHT22;6179;51.748;8.728;2023-08-06T15:10:53;17.90;98.30
12233;DHT22;6179;51.748;8.728;2023-08-06T15:16:54;17.80;98.30
12233;DHT22;6179;51.748;8.728;2023-08-06T15:22:57;17.60;98.30
12233;DHT22;6179;51.748;8.728;2023-08-06T15:28:58;17.40;98.30
12233;DHT22;6179;51.748;8.728;2023-08-06T15:34:59;17.60;98.30
12233;DHT22;6179;51.748;8.728;2023-08-06T15:40:59;17.90;98.30
12233;DHT22;6179;51.748;8.728;2023-08-06T15:47:00;17.60;98.30
12233;DHT22;6179;51.748;8.728;2023-08-06T15:53:01;17.70;98.30
12233;DHT22;6179;51.748;8.728;2023-08-06T15:59:24;17.70;98.30
12233;DHT22;6179;51.748;8.728;2023-08-06T16:05:25;17.20;98.30
12233;DHT22;6179;51.748;8.728;2023-08-06T16:11:25;17.20;98.30
12233;DHT22;6179;51.748;8.728;2023-08-06T16:17:26;17.40;98.30
12233;DHT22;6179;51.748;8.728;2023-08-06T16:23:28;17.10;98.30
12233;DHT22;6179;51.748;8.728;2023-08-06T16:29:29;17.00;98.30
12233;DHT22;6179;51.748;8.728;2023-08-06T16:35:29;17.20;98.30
12233;DHT22;6179;51.748;8.728;2023-08-06T16:41:30;17.10;98.30
12233;DHT22;6179;51.748;8.728;2023-08-06T16:47:30;16.90;98.30
12233;DHT22;6179;51.748;8.728;2023-08-06T16:53:31;16.90;98.30
12233;DHT22;6179;51.748;8.728;2023-08-06T16:59:32;16.60;98.30
12233;DHT22;6179;51.748;8.728;2023-08-06T17:05:33;16.40;98.30
12233;DHT22;6179;51.748;8.728;2023-08-06T17:11:33;16.50;98.30
12233;DHT22;6179;51.748;8.728;2023-08-06T17:17:34;16.60;98.30
12233;DHT22;6179;51.748;8.728;2023-08-06T17:23:35;16.60;98.30
12233;DHT22;6179;51.748;8.728;2023-08-06T17:29:35;16.70;98.30
12233;DHT22;6179;51.748;8.728;2023-08-06T17:35:39;16.80;98.30
12233;DHT22;6179;51.748;8.728;2023-08-06T17:41:40;16.70;98.30
12233;DHT22;6179;51.748;8.728;2023-08-06T17:47:41;16.50;98.30
12233;DHT22;6179;51.748;8.728;2023-08-06T17:53:41;16.60;98.30
12233;DHT22;6179;51.748;8.728;2023-08-06T17:59:42;16.50;98.30
12233;DHT22;6179;51.748;8.728;2023-08-06T18:05:42;16.30;98.30
12233;DHT22;6179;51.748;8.728;2023-08-06T18:11:43;16.30;98.30
12233;DHT22;6179;51.748;8.728;2023-08-06T18:17:44;16.00;98.30
12233;DHT22;6179;51.748;8.728;2023-08-06T18:23:47;15.90;98.30
12233;DHT22;6179;51.748;8.728;2023-08-06T18:29:48;16.00;98.30
12233;DHT22;6179;51.748;8.728;2023-08-06T18:35:48;16.00;98.30
12233;DHT22;6179;51.748;8.728;2023-08-06T18:41:49;15.80;98.30
12233;DHT22;6179;51.748;8.728;2023-08-06T18:47:50;15.70;98.30
12233;DHT22;6179;51.748;8.728;2023-08-06T18:53:51;15.80;98.30
12233;DHT22;6179;51.748;8.728;2023-08-06T18:59:52;15.50;98.30
12233;DHT22;6179;51.748;8.728;2023-08-06T19:05:58;15.10;98.30
12233;DHT22;6179;51.748;8.728;2023-08-06T19:12:00;15.20;98.30
12233;DHT22;6179;51.748;8.728;2023-08-06T19:18:02;15.30;98.30
12233;DHT22;6179;51.748;8.728;2023-08-06T19:24:03;15.10;98.30
12233;DHT22;6179;51.748;8.728;2023-08-06T19:30:04;15.30;98.30
12233;DHT22;6179;51.748;8.728;2023-08-06T19:36:05;15.30;98.30
12233;DHT22;6179;51.748;8.728;2023-08-06T19:42:06;15.50;98.30
12233;DHT22;6179;51.748;8.728;2023-08-06T19:48:06;15.50;98.30
12233;DHT22;6179;51.748;8.728;2023-08-06T19:54:07;15.60;98.30
12233;DHT22;6179;51.748;8.728;2023-08-06T20:00:08;15.30;98.30
12233;DHT22;6179;51.748;8.728;2023-08-06T20:06:10;15.60;98.30
12233;DHT22;6179;51.748;8.728;2023-08-06T20:12:11;15.70;98.30
12233;DHT22;6179;51.748;8.728;2023-08-06T20:18:12;15.50;98.30
12233;DHT22;6179;51.748;8.728;2023-08-06T20:24:12;15.60;98.30
12233;DHT22;6179;51.748;8.728;2023-08-06T20:30:13;15.30;98.30
12233;DHT22;6179;51.748;8.728;2023-08-06T20:36:14;15.60;98.30
12233;DHT22;6179;51.748;8.728;2023-08-06T20:42:14;15.60;98.30
12233;DHT22;6179;51.748;8.728;2023-08-06T20:48:16;15.30;98.30
12233;DHT22;6179;51.748;8.728;2023-08-06T20:54:17;15.10;98.30
12233;DHT22;6179;51.748;8.728;2023-08-06T21:00:18;15.10;98.30
12233;DHT22;6179;51.748;8.728;2023-08-06T21:06:18;15.10;98.30
12233;DHT22;6179;51.748;8.728;2023-08-06T21:12:19;15.00;98.30
12233;DHT22;6179;51.748;8.728;2023-08-06T21:18:20;15.10;98.30
12233;DHT22;6179;51.748;8.728;2023-08-06T21:24:20;15.20;98.30
12233;DHT22;6179;51.748;8.728;2023-08-06T21:30:21;15.20;98.30
12233;DHT22;6179;51.748;8.728;2023-08-06T21:36:21;15.00;98.30
12233;DHT22;6179;51.748;8.728;2023-08-06T21:42:24;15.00;98.30
12233;DHT22;6179;51.748;8.728;2023-08-06T21:48:25;14.80;98.30
12233;DHT22;6179;51.748;8.728;2023-08-06T21:54:25;14.90;98.30
12233;DHT22;6179;51.748;8.728;2023-08-06T22:00:26;15.00;98.30
12233;DHT22;6179;51.748;8.728;2023-08-06T22:06:27;14.80;98.30
12233;DHT22;6179;51.748;8.728;2023-08-06T22:12:28;14.80;98.30
12233;DHT22;6179;51.748;8.728;2023-08-06T22:18:28;14.60;98.30
12233;DHT22;6179;51.748;8.728;2023-08-06T22:24:29;14.40;98.30
12233;DHT22;6179;51.748;8.728;2023-08-06T22:30:29;14.20;98.30
12233;DHT22;6179;51.748;8.728;2023-08-06T22:36:30;14.40;98.30
12233;DHT22;6179;51.748;8.728;2023-08-06T22:42:31;14.60;98.30
12233;DHT22;6179;51.748;8.728;2023-08-06T22:48:32;14.60;98.30
12233;DHT22;6179;51.748;8.728;2023-08-06T22:54:32;14.50;98.30
12233;DHT22;6179;51.748;8.728;2023-08-06T23:00:33;14.40;98.30
12233;DHT22;6179;51.748;8.728;2023-08-06T23:06:34;14.30;98.30
12233;DHT22;6179;51.748;8.728;2023-08-06T23:12:34;14.00;98.30
12233;DHT22;6179;51.748;8.728;2023-08-06T23:18:35;14.20;98.30
12233;DHT22;6179;51.748;8.728;2023-08-06T23:24:35;14.30;98.30
12233;DHT22;6179;51.748;8.728;2023-08-06T23:30:36;14.30;98.30
12233;DHT22;6179;51.748;8.728;2023-08-06T23:36:37;14.30;98.30
12233;DHT22;6179;51.748;8.728;2023-08-06T23:42:37;14.30;98.30
12233;DHT22;6179;51.748;8.728;2023-08-06T23:48:38;14.20;98.30
12233;DHT22;6179;51.748;8.728;2023-08-06T23:54:38;14.20;98.30
